Time;durP1;ratioP1;P1;durP2;ratioP2;P2;SDS_P1;SDS_P2;PMS_P1;PMS_P2;Temp;Humidity;BMP_temperature;BMP_pressure;BME280_temperature;BME280_humidity;BME280_pressure;Samples;Min_cycle;Max_cycle;Signal;HPM_P1;HPM_P2
2023/01/23 00:05:02;;;;;;;37.97;19.43;;;;;0.80;102886.00;;;;10393143;28;20206;-77
2023/01/23 00:10:04;;;;;;;39.03;18.37;;;;;0.80;102879.00;;;;10408387;28;20281;-77
2023/01/23 00:15:07;;;;;;;34.33;17.47;;;;;0.80;102877.00;;;;10353706;28;20223;-77
2023/01/23 00:20:09;;;;;;;39.90;18.63;;;;;0.80;102877.00;;;;10372772;28;20285;-77
2023/01/23 00:25:11;;;;;;;43.90;18.00;;;;;0.90;102880.00;;;;10365741;28;20357;-77
2023/01/23 00:30:14;;;;;;;39.23;18.67;;;;;0.90;102876.00;;;;10361708;28;20198;-77
2023/01/23 00:35:16;;;;;;;48.43;19.47;;;;;0.90;102890.00;;;;10372794;28;20219;-77
2023/01/23 00:40:18;;;;;;;47.13;19.27;;;;;0.90;102886.00;;;;10356562;28;20233;-78
2023/01/23 00:45:21;;;;;;;36.07;17.10;;;;;0.90;102885.00;;;;10361893;28;20210;-77
2023/01/23 00:50:23;;;;;;;46.07;19.60;;;;;0.90;102888.00;;;;10400524;28;20879;-78
2023/01/23 00:55:24;;;;;;;39.53;18.80;;;;;1.00;102883.00;;;;10359464;28;20226;-77
2023/01/23 01:00:26;;;;;;;42.40;18.03;;;;;1.00;102882.00;;;;10360832;28;20275;-77
2023/01/23 01:05:30;;;;;;;44.03;20.27;;;;;0.90;102886.00;;;;10391465;28;20203;-77
2023/01/23 01:10:32;;;;;;;44.43;19.87;;;;;0.90;102886.00;;;;10373706;28;20264;-77
2023/01/23 01:15:35;;;;;;;48.70;20.67;;;;;1.00;102880.00;;;;10383857;28;20668;-77
2023/01/23 01:20:40;;;;;;;45.00;21.43;;;;;1.00;102879.00;;;;10322005;28;20227;-78
2023/01/23 01:25:42;;;;;;;46.07;19.17;;;;;1.00;102884.00;;;;10345339;28;20233;-78
2023/01/23 01:30:44;;;;;;;44.43;20.30;;;;;1.00;102880.00;;;;10348636;28;20203;-78
2023/01/23 01:35:46;;;;;;;48.07;22.00;;;;;1.00;102878.00;;;;10357753;28;20229;-78
2023/01/23 01:40:48;;;;;;;52.07;21.77;;;;;1.00;102879.00;;;;10373149;28;20541;-78
2023/01/23 01:46:08;;;;;;;48.27;19.90;;;;;1.00;102878.00;;;;10371081;28;20195;-78
2023/01/23 01:51:44;;;;;;;50.60;20.47;;;;;1.10;102873.00;;;;10357556;28;20727;-78
2023/01/23 01:57:02;;;;;;;47.80;20.73;;;;;1.10;102868.00;;;;10371512;28;20215;-77
2023/01/23 02:02:18;;;;;;;44.47;19.90;;;;;1.00;102877.00;;;;10368663;28;20629;-78
2023/01/23 02:07:26;;;;;;;47.57;22.30;;;;;1.10;102877.00;;;;10357795;28;20202;-78
2023/01/23 02:12:29;;;;;;;52.93;22.17;;;;;1.10;102885.00;;;;10362624;28;20242;-78
2023/01/23 02:17:34;;;;;;;59.80;22.73;;;;;1.10;102872.00;;;;10367425;28;20479;-78
2023/01/23 02:22:57;;;;;;;59.03;24.13;;;;;1.10;102874.00;;;;10368921;28;20305;-78
2023/01/23 02:28:00;;;;;;;62.20;25.13;;;;;1.10;102875.00;;;;10376463;28;20194;-78
2023/01/23 02:33:30;;;;;;;55.27;22.57;;;;;1.10;102885.00;;;;10387201;28;20281;-78
2023/01/23 02:38:38;;;;;;;62.43;24.93;;;;;1.10;102881.00;;;;10355960;28;20260;-78
2023/01/23 02:43:41;;;;;;;75.93;26.00;;;;;1.10;102881.00;;;;10356156;28;20678;-78
2023/01/23 02:48:46;;;;;;;53.20;22.33;;;;;1.10;102879.00;;;;10392108;28;20711;-78
2023/01/23 02:53:48;;;;;;;60.70;23.80;;;;;1.10;102888.00;;;;10352211;28;20295;-78
2023/01/23 03:04:12;;;;;;;59.30;22.53;;;;;1.10;102863.00;;;;10407412;28;20202;-78
2023/01/23 03:09:16;;;;;;;58.57;21.80;;;;;1.10;102857.00;;;;10350649;28;20229;-78
2023/01/23 03:14:21;;;;;;;61.77;24.17;;;;;1.10;102866.00;;;;10415620;28;20260;-78
2023/01/23 03:19:25;;;;;;;58.87;24.03;;;;;1.10;102869.00;;;;10381431;28;20205;-78
2023/01/23 03:24:27;;;;;;;54.87;22.03;;;;;1.10;102881.00;;;;10396967;28;20666;-78
2023/01/23 03:34:50;;;;;;;62.50;24.07;;;;;1.10;102874.00;;;;10378115;28;20211;-78
2023/01/23 03:45:13;;;;;;;52.63;22.83;;;;;1.10;102879.00;;;;10385580;28;20206;-78
2023/01/23 03:50:16;;;;;;;54.30;24.07;;;;;1.10;102876.00;;;;10377153;28;20305;-78
2023/01/23 03:55:18;;;;;;;58.53;24.00;;;;;1.10;102873.00;;;;10378300;28;20211;-78
2023/01/23 04:00:21;;;;;;;48.03;20.93;;;;;1.10;102887.00;;;;10350951;28;20229;-79
2023/01/23 04:05:30;;;;;;;52.40;23.00;;;;;1.10;102877.00;;;;10387746;28;20203;-78
2023/01/23 04:10:35;;;;;;;60.60;22.00;;;;;1.10;102880.00;;;;10392443;28;20288;-78
2023/01/23 04:15:42;;;;;;;57.03;23.83;;;;;1.20;102895.00;;;;10379428;28;20310;-78
2023/01/23 04:20:44;;;;;;;64.20;22.40;;;;;1.20;102890.00;;;;10357409;28;20290;-78
2023/01/23 04:25:48;;;;;;;58.60;22.93;;;;;1.20;102897.00;;;;10368782;28;20209;-78
2023/01/23 04:30:52;;;;;;;58.50;21.10;;;;;1.20;102901.00;;;;10373552;28;20237;-78
2023/01/23 04:36:03;;;;;;;57.90;22.10;;;;;1.20;102905.00;;;;10376792;28;20999;-78
2023/01/23 04:41:05;;;;;;;46.73;20.47;;;;;1.20;102898.00;;;;10362949;28;20225;-78
2023/01/23 04:46:11;;;;;;;55.33;20.63;;;;;1.20;102903.00;;;;10392687;28;20206;-77
2023/01/23 04:51:33;;;;;;;62.17;21.47;;;;;1.20;102899.00;;;;10370145;28;20278;-78
2023/01/23 04:56:35;;;;;;;54.30;21.37;;;;;1.20;102905.00;;;;10377017;28;20233;-78
2023/01/23 05:01:39;;;;;;;60.60;21.23;;;;;1.20;102896.00;;;;10397669;28;20199;-78
2023/01/23 05:06:41;;;;;;;52.23;20.87;;;;;1.20;102905.00;;;;10391599;28;20267;-78
2023/01/23 05:11:44;;;;;;;57.07;21.90;;;;;1.20;102915.00;;;;10389862;28;20227;-79
2023/01/23 05:16:47;;;;;;;58.23;21.90;;;;;1.20;102913.00;;;;10354039;28;20285;-78
2023/01/23 05:21:52;;;;;;;58.17;22.47;;;;;1.20;102920.00;;;;10373756;28;20249;-78
2023/01/23 05:26:55;;;;;;;61.40;21.33;;;;;1.30;102925.00;;;;10399375;28;20205;-78
2023/01/23 05:32:00;;;;;;;59.67;22.53;;;;;1.30;102935.00;;;;10362695;28;20302;-78
2023/01/23 05:37:24;;;;;;;53.80;21.47;;;;;1.30;102934.00;;;;10344385;28;20235;-78
2023/01/23 05:42:34;;;;;;;52.73;22.60;;;;;1.30;102936.00;;;;10352314;28;20196;-78
2023/01/23 05:47:54;;;;;;;59.33;22.83;;;;;1.30;102943.00;;;;10363207;28;20210;-78
2023/01/23 05:52:57;;;;;;;48.37;21.70;;;;;1.30;102943.00;;;;10356056;28;20207;-78
2023/01/23 05:57:59;;;;;;;61.93;22.77;;;;;1.30;102950.00;;;;10390253;28;20666;-78
2023/01/23 06:03:34;;;;;;;60.10;23.17;;;;;1.30;102955.00;;;;10368147;28;20680;-78
2023/01/23 06:08:58;;;;;;;57.33;19.73;;;;;1.30;102950.00;;;;10356092;28;20222;-78
2023/01/23 06:14:00;;;;;;;60.53;22.27;;;;;1.40;102956.00;;;;10378200;28;20253;-78
2023/01/23 06:19:03;;;;;;;49.90;20.73;;;;;1.40;102939.00;;;;10379026;28;20226;-79
2023/01/23 06:24:07;;;;;;;51.77;20.87;;;;;1.40;102949.00;;;;10385803;28;20285;-79
2023/01/23 06:29:10;;;;;;;56.83;20.43;;;;;1.40;102956.00;;;;10356768;28;20206;-78
2023/01/23 06:34:13;;;;;;;50.17;20.40;;;;;1.40;102959.00;;;;10389292;28;20206;-79
2023/01/23 06:39:26;;;;;;;51.87;20.47;;;;;1.40;102950.00;;;;10370179;28;20208;-78
2023/01/23 06:44:28;;;;;;;56.17;22.70;;;;;1.40;102960.00;;;;10383964;28;20206;-78
2023/01/23 06:49:30;;;;;;;46.63;20.70;;;;;1.40;102957.00;;;;10340212;28;20208;-78
2023/01/23 06:54:32;;;;;;;50.33;20.00;;;;;1.40;102956.00;;;;10373444;28;20209;-78
2023/01/23 06:59:38;;;;;;;61.03;20.63;;;;;1.40;102955.00;;;;10375496;28;20673;-78
2023/01/23 07:04:43;;;;;;;61.90;22.50;;;;;1.50;102965.00;;;;10362529;28;20265;-78
2023/01/23 07:09:46;;;;;;;54.67;20.67;;;;;1.50;102973.00;;;;10371328;28;20203;-79
2023/01/23 07:14:57;;;;;;;69.13;24.30;;;;;1.50;102968.00;;;;10377677;28;20219;-79
2023/01/23 07:20:10;;;;;;;54.83;22.63;;;;;1.50;102978.00;;;;10386205;28;20206;-79
2023/01/23 07:25:20;;;;;;;59.80;22.03;;;;;1.50;102996.00;;;;10372896;28;20202;-78
2023/01/23 07:30:21;;;;;;;54.20;22.27;;;;;1.50;103002.00;;;;10397332;28;20277;-79
2023/01/23 07:35:24;;;;;;;57.27;21.77;;;;;1.50;103001.00;;;;10366072;28;20231;-78
2023/01/23 07:40:26;;;;;;;60.80;20.63;;;;;1.60;103010.00;;;;10399857;28;20195;-79
2023/01/23 07:45:28;;;;;;;48.57;21.67;;;;;1.60;103008.00;;;;10388884;28;20195;-78
2023/01/23 07:50:30;;;;;;;48.93;19.57;;;;;1.70;103013.00;;;;10352718;28;20209;-78
2023/01/23 07:55:32;;;;;;;55.77;22.73;;;;;1.70;103005.00;;;;10405650;28;20214;-79
2023/01/23 08:00:34;;;;;;;55.33;22.90;;;;;1.70;103024.00;;;;10379408;28;20753;-78
2023/01/23 08:05:36;;;;;;;60.60;23.60;;;;;1.70;103028.00;;;;10405636;28;20265;-79
2023/01/23 08:10:38;;;;;;;55.73;21.17;;;;;1.80;103024.00;;;;10393651;28;20277;-78
2023/01/23 08:15:40;;;;;;;50.07;21.23;;;;;1.80;103023.00;;;;10374819;28;20219;-79
2023/01/23 08:20:42;;;;;;;54.57;23.80;;;;;1.80;103025.00;;;;10378454;28;20749;-78
2023/01/23 08:25:44;;;;;;;50.83;21.97;;;;;1.80;103029.00;;;;10334871;28;20203;-78
2023/01/23 08:30:46;;;;;;;54.63;23.80;;;;;1.90;103033.00;;;;10398220;28;20191;-79
2023/01/23 08:35:50;;;;;;;59.13;24.37;;;;;2.00;103035.00;;;;10367027;28;20211;-79
2023/01/23 08:40:54;;;;;;;53.43;23.90;;;;;2.10;103047.00;;;;10383246;28;20218;-79
2023/01/23 08:45:57;;;;;;;62.83;26.13;;;;;2.20;103049.00;;;;10411248;28;20565;-79
2023/01/23 08:51:05;;;;;;;60.33;25.90;;;;;2.30;103050.00;;;;10393294;28;20198;-78
2023/01/23 08:56:13;;;;;;;62.73;24.13;;;;;2.40;103051.00;;;;10381707;28;20260;-78
2023/01/23 09:01:20;;;;;;;51.07;22.10;;;;;2.50;103052.00;;;;10392406;28;20714;-78
2023/01/23 09:06:22;;;;;;;58.80;25.13;;;;;2.60;103060.00;;;;10383071;28;20205;-78
2023/01/23 09:11:24;;;;;;;55.87;23.87;;;;;2.60;103066.00;;;;10365128;28;20199;-78
2023/01/23 09:16:26;;;;;;;56.20;25.03;;;;;2.70;103057.00;;;;10377145;28;20219;-78
2023/01/23 09:21:28;;;;;;;56.37;23.33;;;;;2.80;103065.00;;;;10375979;28;20214;-78
2023/01/23 09:26:30;;;;;;;58.73;25.90;;;;;2.80;103056.00;;;;10376186;28;20606;-78
2023/01/23 09:31:32;;;;;;;54.17;22.70;;;;;3.00;103042.00;;;;10383485;28;20198;-78
2023/01/23 09:36:34;;;;;;;56.63;23.13;;;;;3.10;103064.00;;;;10383851;28;20218;-79
2023/01/23 09:41:45;;;;;;;65.40;23.00;;;;;3.20;103069.00;;;;10385567;28;20194;-78
2023/01/23 09:47:01;;;;;;;51.83;23.67;;;;;3.30;103074.00;;;;10398457;28;20199;-78
2023/01/23 09:52:10;;;;;;;59.47;24.30;;;;;3.40;103072.00;;;;10365605;28;20598;-78
2023/01/23 09:57:15;;;;;;;64.57;26.33;;;;;3.50;103077.00;;;;10388772;28;20254;-78
2023/01/23 10:02:19;;;;;;;61.57;25.27;;;;;3.50;103081.00;;;;10366288;28;20195;-78
2023/01/23 10:07:42;;;;;;;51.27;24.17;;;;;3.50;103082.00;;;;10354093;28;20203;-77
2023/01/23 10:12:53;;;;;;;57.60;23.20;;;;;3.70;103084.00;;;;10367237;28;20223;-78
2023/01/23 10:18:07;;;;;;;51.13;22.77;;;;;3.80;103084.00;;;;10396947;28;20219;-78
2023/01/23 10:23:26;;;;;;;47.43;23.00;;;;;3.90;103066.00;;;;10332102;28;20214;-78
2023/01/23 10:28:38;;;;;;;47.13;23.07;;;;;3.90;103085.00;;;;10354369;28;20194;-78
2023/01/23 10:34:12;;;;;;;54.60;24.40;;;;;4.00;103079.00;;;;10364478;28;20198;-76
2023/01/23 10:39:20;;;;;;;51.80;21.50;;;;;4.00;103065.00;;;;10343643;28;20211;-78
2023/01/23 10:44:22;;;;;;;51.93;23.33;;;;;3.90;103073.00;;;;10366182;28;20883;-77
2023/01/23 10:49:36;;;;;;;58.63;32.25;;;;;4.10;103069.00;;;;10385214;28;20813;-78
2023/01/23 10:54:45;;;;;;;51.13;24.90;;;;;4.00;103062.00;;;;10376631;28;20744;-77
2023/01/23 11:00:00;;;;;;;53.07;24.67;;;;;3.90;103058.00;;;;10366218;28;20232;-77
2023/01/23 11:05:39;;;;;;;53.13;23.77;;;;;3.90;103068.00;;;;10407164;28;20281;-77
2023/01/23 11:11:30;;;;;;;59.87;23.40;;;;;4.00;103062.00;;;;10381502;28;20207;-77
2023/01/23 11:16:33;;;;;;;50.60;22.83;;;;;4.00;103054.00;;;;10349616;28;20256;-77
2023/01/23 11:21:55;;;;;;;48.97;22.77;;;;;4.00;103054.00;;;;10371762;28;20207;-77
2023/01/23 11:27:04;;;;;;;50.57;23.40;;;;;4.20;103055.00;;;;10373748;28;20203;-78
2023/01/23 11:32:11;;;;;;;51.87;24.40;;;;;4.30;103039.00;;;;10387464;28;20233;-78
2023/01/23 11:37:13;;;;;;;47.77;23.47;;;;;4.40;103040.00;;;;10380483;28;20716;-77
2023/01/23 11:42:16;;;;;;;54.40;24.60;;;;;4.70;103044.00;;;;10391088;28;20194;-78
2023/01/23 11:47:57;;;;;;;50.33;23.50;;;;;4.60;103051.00;;;;10401411;28;20290;-78
2023/01/23 11:53:19;;;;;;;47.07;22.63;;;;;4.60;103053.00;;;;10388816;28;20230;-78
2023/01/23 11:58:40;;;;;;;46.47;21.83;;;;;4.40;103054.00;;;;10401332;28;20219;-78
2023/01/23 12:03:59;;;;;;;51.63;22.10;;;;;4.30;103054.00;;;;10372230;28;20206;-77
2023/01/23 12:09:14;;;;;;;49.07;25.27;;;;;4.30;103061.00;;;;10395447;28;20250;-78
2023/01/23 12:14:25;;;;;;;51.37;24.90;;;;;4.30;103060.00;;;;10402953;28;20210;-78
2023/01/23 12:20:00;;;;;;;46.53;23.70;;;;;4.40;103054.00;;;;10387648;28;20230;-78
2023/01/23 12:25:17;;;;;;;51.40;23.97;;;;;4.40;103051.00;;;;10388505;28;20705;-77
2023/01/23 12:30:28;;;;;;;52.07;23.20;;;;;4.60;103031.00;;;;10403470;28;20282;-78
2023/01/23 12:36:08;;;;;;;51.57;22.97;;;;;4.80;103042.00;;;;10384619;28;20215;-77
2023/01/23 12:41:24;;;;;;;49.10;23.27;;;;;4.70;103038.00;;;;10308593;28;20207;-77
2023/01/23 12:46:42;;;;;;;40.53;21.17;;;;;4.70;103040.00;;;;10372333;28;20194;-77
2023/01/23 12:51:48;;;;;;;40.23;18.97;;;;;4.60;103031.00;;;;10391366;28;20194;-77
2023/01/23 12:56:50;;;;;;;41.70;20.07;;;;;4.40;103043.00;;;;10386895;28;20222;-77
2023/01/23 13:02:15;;;;;;;38.40;19.07;;;;;4.30;103041.00;;;;10390629;28;20783;-78
2023/01/23 13:07:40;;;;;;;38.20;19.90;;;;;4.20;103040.00;;;;10373094;28;20198;-78
2023/01/23 13:12:43;;;;;;;42.50;20.83;;;;;4.10;103038.00;;;;10367669;28;20207;-77
2023/01/23 13:18:00;;;;;;;38.13;19.67;;;;;4.20;103039.00;;;;10389864;28;20219;-77
2023/01/23 13:23:35;;;;;;;39.70;20.63;;;;;4.40;103030.00;;;;10384995;28;20261;-77
2023/01/23 13:28:42;;;;;;;39.33;19.07;;;;;4.20;103044.00;;;;10357844;28;20213;-77
2023/01/23 13:33:49;;;;;;;37.60;18.33;;;;;4.10;103027.00;;;;10363948;28;20685;-77
2023/01/23 13:39:18;;;;;;;42.47;21.17;;;;;4.00;103040.00;;;;10361401;28;20217;-77
2023/01/23 13:44:22;;;;;;;43.97;19.23;;;;;4.00;103049.00;;;;10375690;28;20202;-77
2023/01/23 13:49:54;;;;;;;40.53;19.57;;;;;4.00;103059.00;;;;10401492;28;20618;-77
2023/01/23 14:06:48;;;;;;;44.43;21.70;;;;;3.80;103056.00;;;;9993826;29;20217;-78
2023/01/23 14:12:04;;;;;;;43.63;21.30;;;;;3.80;103053.00;;;;9860291;29;20227;-78
2023/01/23 14:17:21;;;;;;;38.80;20.03;;;;;3.90;103055.00;;;;9825173;29;20623;-78
2023/01/23 14:22:38;;;;;;;41.07;19.70;;;;;3.90;103053.00;;;;9916381;29;20213;-78
2023/01/23 14:27:40;;;;;;;42.30;19.17;;;;;4.00;103046.00;;;;10052096;29;20766;-78
2023/01/23 14:32:55;;;;;;;44.07;21.40;;;;;3.90;103053.00;;;;10157183;29;20207;-78
2023/01/23 14:38:00;;;;;;;47.47;24.07;;;;;3.80;103051.00;;;;10226294;28;20268;-78
2023/01/23 14:43:06;;;;;;;49.83;21.47;;;;;3.80;103055.00;;;;10317842;28;20222;-78
2023/01/23 14:48:14;;;;;;;43.07;22.00;;;;;3.80;103042.00;;;;10351904;28;20268;-78
2023/01/23 14:53:16;;;;;;;48.73;23.60;;;;;3.70;103049.00;;;;10402415;28;20290;-78
2023/01/23 14:58:23;;;;;;;46.33;22.37;;;;;3.80;103046.00;;;;10374040;28;20562;-77
2023/01/23 15:03:43;;;;;;;46.53;22.20;;;;;3.80;103028.00;;;;10383154;28;20199;-78
2023/01/23 15:08:46;;;;;;;40.97;22.03;;;;;3.80;103019.00;;;;10350178;28;20199;-78
2023/01/23 15:13:51;;;;;;;45.17;21.60;;;;;3.80;102993.00;;;;10366844;28;20232;-78
2023/01/23 15:18:59;;;;;;;46.07;20.70;;;;;3.70;102991.00;;;;10348965;28;20246;-78
2023/01/23 15:24:13;;;;;;;38.63;21.17;;;;;3.40;102993.00;;;;10377712;28;20207;-78
2023/01/23 15:29:18;;;;;;;38.20;18.43;;;;;3.30;102998.00;;;;10399580;28;20203;-78
2023/01/23 15:34:22;;;;;;;35.27;16.80;;;;;3.20;103000.00;;;;10366762;28;20253;-78
2023/01/23 15:39:28;;;;;;;28.03;15.30;;;;;3.10;103004.00;;;;10382800;28;20996;-77
2023/01/23 15:44:31;;;;;;;26.73;14.97;;;;;3.10;102999.00;;;;10365467;28;20206;-78
2023/01/23 15:49:36;;;;;;;28.20;15.43;;;;;3.00;103026.00;;;;10376317;28;20214;-78
2023/01/23 15:54:39;;;;;;;31.07;17.23;;;;;3.00;103028.00;;;;10368898;28;20206;-78
2023/01/23 15:59:41;;;;;;;29.97;16.77;;;;;3.00;103029.00;;;;10389527;28;20456;-78
2023/01/23 16:04:44;;;;;;;30.73;17.20;;;;;2.90;103034.00;;;;10376188;28;20195;-77
2023/01/23 16:09:48;;;;;;;33.93;18.53;;;;;2.90;103037.00;;;;10356172;28;20581;-78
2023/01/23 16:14:50;;;;;;;27.30;16.17;;;;;2.80;103049.00;;;;10390723;28;20956;-78
2023/01/23 16:19:53;;;;;;;27.73;16.43;;;;;2.80;103061.00;;;;10389411;28;20297;-78
2023/01/23 16:24:57;;;;;;;28.33;16.17;;;;;2.70;103053.00;;;;10393562;28;20190;-78
2023/01/23 16:29:59;;;;;;;30.17;16.93;;;;;2.70;103051.00;;;;10390073;28;20213;-78
2023/01/23 16:35:00;;;;;;;28.13;17.10;;;;;2.70;103051.00;;;;10362969;28;20203;-78
2023/01/23 16:40:03;;;;;;;28.33;16.90;;;;;2.70;103052.00;;;;10405782;28;20795;-78
2023/01/23 16:45:13;;;;;;;28.10;16.27;;;;;2.70;103043.00;;;;10377292;28;20195;-78
2023/01/23 16:50:23;;;;;;;31.73;18.00;;;;;2.60;103049.00;;;;10347324;28;20199;-78
2023/01/23 16:55:31;;;;;;;29.90;18.53;;;;;2.60;103049.00;;;;10370481;28;20199;-78
2023/01/23 17:00:34;;;;;;;32.17;17.30;;;;;2.60;103049.00;;;;10384407;28;20269;-78
2023/01/23 17:05:36;;;;;;;32.70;18.87;;;;;2.60;103046.00;;;;10357233;28;20207;-77
2023/01/23 17:10:38;;;;;;;32.57;17.77;;;;;2.50;103055.00;;;;10364464;28;20211;-78
2023/01/23 17:15:50;;;;;;;28.50;18.20;;;;;2.50;103057.00;;;;10364131;28;20224;-78
2023/01/23 17:20:55;;;;;;;32.67;17.67;;;;;2.50;103060.00;;;;10363260;28;20218;-78
2023/01/23 17:25:57;;;;;;;30.57;18.70;;;;;2.50;103083.00;;;;10368352;28;20253;-77
2023/01/23 17:31:03;;;;;;;29.13;18.70;;;;;2.50;103069.00;;;;10342109;28;20210;-78
2023/01/23 17:36:06;;;;;;;32.97;18.17;;;;;2.50;103077.00;;;;10336493;28;20219;-78
2023/01/23 17:41:15;;;;;;;32.80;18.93;;;;;2.50;103078.00;;;;10369067;28;20203;-78
2023/01/23 17:46:26;;;;;;;32.93;18.53;;;;;2.50;103076.00;;;;10347821;28;20554;-78
2023/01/23 17:51:28;;;;;;;31.63;19.07;;;;;2.50;103085.00;;;;10386109;28;20281;-78
2023/01/23 17:56:31;;;;;;;29.27;16.97;;;;;2.40;103089.00;;;;10364403;28;20231;-78
2023/01/23 18:01:33;;;;;;;29.20;18.73;;;;;2.40;103083.00;;;;10348417;28;20207;-78
2023/01/23 18:06:35;;;;;;;32.63;19.17;;;;;2.40;103081.00;;;;10365581;28;20242;-78
2023/01/23 18:11:39;;;;;;;33.73;19.60;;;;;2.40;103091.00;;;;10349037;28;20800;-78
2023/01/23 18:16:44;;;;;;;34.47;19.13;;;;;2.40;103103.00;;;;10415412;28;20222;-78
2023/01/23 18:21:48;;;;;;;29.17;17.50;;;;;2.40;103097.00;;;;10413431;28;20189;-78
2023/01/23 18:27:15;;;;;;;32.07;18.50;;;;;2.40;103112.00;;;;10366624;28;20208;-78
2023/01/23 18:32:30;;;;;;;30.03;18.10;;;;;2.40;103106.00;;;;10359487;28;20430;-78
2023/01/23 18:37:47;;;;;;;30.93;18.57;;;;;2.40;103112.00;;;;10330368;28;20219;-78
2023/01/23 18:43:11;;;;;;;32.70;18.37;;;;;2.40;103118.00;;;;10348005;28;20199;-78
2023/01/23 18:48:14;;;;;;;33.13;17.87;;;;;2.40;103117.00;;;;10386171;28;20214;-78
2023/01/23 18:53:44;;;;;;;32.30;18.60;;;;;2.40;103114.00;;;;10371421;28;20191;-78
2023/01/23 18:59:08;;;;;;;29.40;16.87;;;;;2.40;103112.00;;;;10371130;28;20218;-78
2023/01/23 19:04:14;;;;;;;29.27;17.30;;;;;2.40;103120.00;;;;10363179;28;20262;-78
2023/01/23 19:09:18;;;;;;;29.93;16.37;;;;;2.40;103111.00;;;;10363163;28;20222;-78
2023/01/23 19:14:57;;;;;;;32.33;18.43;;;;;2.40;103107.00;;;;10361571;28;20275;-78
2023/01/23 19:20:09;;;;;;;33.20;18.27;;;;;2.50;103117.00;;;;10373072;28;20313;-78
2023/01/23 19:25:16;;;;;;;29.07;16.93;;;;;2.40;103113.00;;;;10425022;28;20194;-78
2023/01/23 19:30:20;;;;;;;28.57;17.53;;;;;2.50;103117.00;;;;10388621;28;20649;-78
2023/01/23 19:35:23;;;;;;;31.13;17.57;;;;;2.50;103114.00;;;;10373137;28;20261;-78
2023/01/23 19:40:25;;;;;;;30.70;17.03;;;;;2.50;103115.00;;;;10314505;28;20708;-78
2023/01/23 19:45:27;;;;;;;29.70;16.03;;;;;2.50;103121.00;;;;10348658;28;20879;-78
2023/01/23 19:50:29;;;;;;;29.50;16.67;;;;;2.50;103115.00;;;;10361172;28;20204;-78
2023/01/23 19:55:33;;;;;;;29.97;17.83;;;;;2.50;103126.00;;;;10370061;28;20242;-78
2023/01/23 20:00:35;;;;;;;32.47;19.23;;;;;2.50;103118.00;;;;10341151;28;20706;-79
2023/01/23 20:05:37;;;;;;;32.27;19.27;;;;;2.50;103121.00;;;;10336775;28;20203;-78
2023/01/23 20:10:39;;;;;;;32.57;18.70;;;;;2.50;103131.00;;;;10369411;28;20555;-78
2023/01/23 20:15:41;;;;;;;36.60;20.03;;;;;2.50;103125.00;;;;10388598;28;20235;-78
2023/01/23 20:20:43;;;;;;;36.47;20.07;;;;;2.50;103135.00;;;;10384649;28;20246;-78
2023/01/23 20:25:45;;;;;;;36.27;20.53;;;;;2.50;103130.00;;;;10344543;28;20203;-78
2023/01/23 20:30:47;;;;;;;37.77;20.60;;;;;2.50;103127.00;;;;10360661;28;20717;-78
2023/01/23 20:35:51;;;;;;;42.40;21.90;;;;;2.50;103124.00;;;;10360475;28;20195;-78
2023/01/23 20:40:54;;;;;;;38.70;22.40;;;;;2.50;103124.00;;;;10376636;28;20301;-78
2023/01/23 20:45:56;;;;;;;43.07;23.53;;;;;2.50;103121.00;;;;10375560;28;20226;-78
2023/01/23 20:50:57;;;;;;;40.10;22.37;;;;;2.50;103120.00;;;;10394836;28;20562;-78
2023/01/23 20:56:03;;;;;;;38.20;22.10;;;;;2.50;103136.00;;;;10375409;28;20206;-78
2023/01/23 21:01:05;;;;;;;40.60;22.40;;;;;2.50;103130.00;;;;10376906;28;20280;-78
2023/01/23 21:06:08;;;;;;;41.27;22.57;;;;;2.50;103143.00;;;;10392518;28;20199;-78
2023/01/23 21:11:17;;;;;;;38.03;22.17;;;;;2.60;103142.00;;;;10390966;28;20261;-78
2023/01/23 21:16:19;;;;;;;40.03;22.23;;;;;2.60;103131.00;;;;10357913;28;20573;-77
2023/01/23 21:21:22;;;;;;;43.90;22.57;;;;;2.50;103141.00;;;;10374837;28;20923;-78
2023/01/23 21:26:25;;;;;;;36.63;21.70;;;;;2.50;103147.00;;;;10357797;28;20201;-78
2023/01/23 21:31:33;;;;;;;38.50;22.10;;;;;2.50;103142.00;;;;10337059;28;20285;-78
2023/01/23 21:36:36;;;;;;;35.70;21.43;;;;;2.50;103145.00;;;;10333114;28;20196;-78
2023/01/23 21:41:38;;;;;;;41.60;24.30;;;;;2.50;103146.00;;;;10374041;28;20222;-78
2023/01/23 21:46:40;;;;;;;44.83;23.73;;;;;2.50;103137.00;;;;10359918;28;20235;-79
2023/01/23 21:51:43;;;;;;;43.57;24.93;;;;;2.50;103132.00;;;;10348603;28;20191;-78
2023/01/23 21:56:45;;;;;;;41.20;20.07;;;;;2.50;103133.00;;;;10349128;28;20238;-78
2023/01/23 22:01:47;;;;;;;43.97;24.00;;;;;2.50;103132.00;;;;10332702;28;20226;-78
2023/01/23 22:06:53;;;;;;;45.77;26.13;;;;;2.50;103139.00;;;;10348340;28;20213;-78
2023/01/23 22:11:56;;;;;;;44.13;24.90;;;;;2.40;103147.00;;;;10333602;28;20310;-78
2023/01/23 22:16:58;;;;;;;44.67;24.40;;;;;2.50;103140.00;;;;10394105;28;20207;-78
2023/01/23 22:22:00;;;;;;;47.50;25.87;;;;;2.50;103133.00;;;;10348909;28;20241;-78
2023/01/23 22:27:02;;;;;;;48.83;26.47;;;;;2.50;103132.00;;;;10374026;28;20214;-78
2023/01/23 22:32:04;;;;;;;44.33;24.57;;;;;2.50;103129.00;;;;10408125;28;20286;-78
2023/01/23 22:37:07;;;;;;;47.53;26.57;;;;;2.50;103132.00;;;;10357412;28;20697;-78
2023/01/23 22:42:09;;;;;;;47.50;26.30;;;;;2.50;103140.00;;;;10357184;28;20199;-78
2023/01/23 22:47:11;;;;;;;53.13;27.43;;;;;2.50;103144.00;;;;10388147;28;20698;-78
2023/01/23 22:52:13;;;;;;;45.53;25.60;;;;;2.50;103137.00;;;;10371811;28;20195;-78
2023/01/23 22:57:15;;;;;;;48.93;27.67;;;;;2.50;103130.00;;;;10363734;28;20211;-78
2023/01/23 23:02:17;;;;;;;40.00;22.67;;;;;2.40;103135.00;;;;10382851;28;20202;-78
2023/01/23 23:07:19;;;;;;;45.17;25.80;;;;;2.40;103132.00;;;;10355356;28;20697;-78
2023/01/23 23:12:21;;;;;;;46.80;27.60;;;;;2.40;103133.00;;;;10371926;28;20673;-78
2023/01/23 23:17:24;;;;;;;43.30;24.20;;;;;2.40;103154.00;;;;10371944;28;20252;-78
2023/01/23 23:22:26;;;;;;;49.10;24.00;;;;;2.40;103159.00;;;;10353542;28;20298;-78
2023/01/23 23:27:28;;;;;;;43.60;25.53;;;;;2.40;103160.00;;;;10360459;28;20248;-78
2023/01/23 23:32:30;;;;;;;42.43;24.50;;;;;2.40;103168.00;;;;10354412;28;20203;-78
2023/01/23 23:37:31;;;;;;;41.00;23.80;;;;;2.40;103163.00;;;;10372155;28;20563;-78
2023/01/23 23:42:33;;;;;;;40.70;22.57;;;;;2.40;103165.00;;;;10353789;28;20215;-78
2023/01/23 23:47:35;;;;;;;39.57;23.20;;;;;2.40;103154.00;;;;10365907;28;20269;-78
2023/01/23 23:52:37;;;;;;;42.67;23.73;;;;;2.40;103159.00;;;;10359211;28;20215;-78
2023/01/23 23:57:39;;;;;;;44.87;24.37;;;;;2.40;103148.00;;;;10388446;28;20740;-78
